createdAt,value
2023-05-12T00:01:58.202Z,101695.91
2023-05-12T00:04:24.888Z,101692.25
2023-05-12T00:06:53.852Z,101695.66
2023-05-12T00:09:20.472Z,101697.31
2023-05-12T00:11:48.606Z,101695.06
2023-05-12T00:14:16.058Z,101694.22
2023-05-12T00:16:43.583Z,101691.19
2023-05-12T00:19:10.468Z,101690.63
2023-05-12T00:21:37.271Z,101694.59
2023-05-12T00:24:04.153Z,101694.06
2023-05-12T00:26:31.112Z,101693.81
2023-05-12T00:28:57.815Z,101697.47
2023-05-12T00:31:24.528Z,101691.28
2023-05-12T00:33:51.189Z,101692.75
2023-05-12T00:36:17.892Z,101700.06
2023-05-12T00:38:44.505Z,101700.06
2023-05-12T00:41:11.204Z,101704.28
2023-05-12T00:43:37.830Z,101705.97
2023-05-12T00:46:05.421Z,101699.50
2023-05-12T00:48:32.919Z,101702.94
2023-05-12T00:51:00.917Z,101713.34
2023-05-12T00:53:34.984Z,101711.66
2023-05-12T00:56:08.421Z,101707.16
2023-05-12T00:58:35.510Z,101710.53
2023-05-12T01:01:02.865Z,101707.72
2023-05-12T01:03:31.001Z,101718.72
2023-05-12T01:06:02.047Z,101713.09
2023-05-12T01:08:29.854Z,101715.91
2023-05-12T01:10:57.517Z,101718.16
2023-05-12T01:13:24.736Z,101720.69
2023-05-12T01:15:53.720Z,101722.09
2023-05-12T01:18:22.161Z,101709.69
2023-05-12T01:20:49.956Z,101722.06
2023-05-12T01:23:19.350Z,101724.91
2023-05-12T01:25:49.686Z,101723.22
2023-05-12T01:28:16.840Z,101732.84
2023-05-12T01:30:44.408Z,101732.84
2023-05-12T01:33:11.810Z,101732.56
2023-05-12T01:35:39.224Z,101739.03
2023-05-12T01:38:05.922Z,101731.16
2023-05-12T01:40:33.092Z,101727.25
2023-05-12T01:43:00.215Z,101741.31
2023-05-12T01:45:27.042Z,101740.47
2023-05-12T01:47:54.475Z,101738.78
2023-05-12T01:50:21.679Z,101739.91
2023-05-12T01:52:48.970Z,101744.69
2023-05-12T01:55:17.086Z,101747.28
2023-05-12T01:57:44.140Z,101755.69
2023-05-12T02:00:12.084Z,101752.06
2023-05-12T02:02:41.471Z,101754.88
2023-05-12T02:05:10.648Z,101752.66
2023-05-12T02:07:40.001Z,101749.84
2023-05-12T02:10:08.190Z,101754.63
2023-05-12T02:12:37.216Z,101757.72
2023-05-12T02:15:05.697Z,101750.44
2023-05-12T02:17:33.507Z,101751.56
2023-05-12T02:20:01.730Z,101752.69
2023-05-12T02:22:28.907Z,101753.81
2023-05-12T02:24:56.267Z,101757.78
2023-05-12T02:27:23.466Z,101759.19
2023-05-12T02:29:50.733Z,101758.34
2023-05-12T02:32:17.509Z,101754.69
2023-05-12T02:34:46.183Z,101763.47
2023-05-12T02:37:14.944Z,101767.09
2023-05-12T02:39:44.385Z,101763.47
2023-05-12T02:42:11.539Z,101767.38
2023-05-12T02:44:38.571Z,101777.78
2023-05-12T02:47:05.717Z,101776.94
2023-05-12T02:49:32.735Z,101786.50
2023-05-12T02:51:59.412Z,101780.34
2023-05-12T02:54:26.321Z,101781.78
2023-05-12T02:56:53.691Z,101787.38
2023-05-12T02:59:20.739Z,101793.84
2023-05-12T03:01:47.580Z,101791.63
2023-05-12T03:04:17.034Z,101796.13
2023-05-12T03:06:43.803Z,101800.06
2023-05-12T03:09:10.645Z,101798.94
2023-05-12T03:11:38.036Z,101802.88
2023-05-12T03:14:05.031Z,101808.50
2023-05-12T03:16:32.243Z,101813.56
2023-05-12T03:18:59.211Z,101810.22
2023-05-12T03:21:26.297Z,101811.34
2023-05-12T03:23:53.184Z,101806.28
2023-05-12T03:26:20.460Z,101808.81
2023-05-12T03:28:47.142Z,101807.16
2023-05-12T03:31:13.928Z,101807.97
2023-05-12T03:33:41.242Z,101813.06
2023-05-12T03:36:08.635Z,101813.91
2023-05-12T03:38:35.577Z,101815.03
2023-05-12T03:41:04.174Z,101815.31
2023-05-12T03:43:31.037Z,101822.88
2023-05-12T03:45:58.022Z,101823.47
2023-05-12T03:48:25.216Z,101825.44
2023-05-12T03:50:51.983Z,101818.69
2023-05-12T03:53:18.670Z,101829.34
2023-05-12T03:55:45.542Z,101839.47
2023-05-12T03:58:12.446Z,101837.78
2023-05-12T04:00:39.270Z,101839.78
2023-05-12T04:03:06.138Z,101838.09
2023-05-12T04:05:32.976Z,101844.84
2023-05-12T04:08:00.114Z,101842.03
2023-05-12T04:10:27.253Z,101848.50
2023-05-12T04:12:54.812Z,101852.72
2023-05-12T04:15:21.963Z,101849.09
2023-05-12T04:17:52.221Z,101851.06
2023-05-12T04:20:20.115Z,101853.88
2023-05-12T04:22:47.890Z,101854.16
2023-05-12T04:25:14.862Z,101852.19
2023-05-12T04:27:41.643Z,101850.50
2023-05-12T04:30:08.911Z,101857.22
2023-05-12T04:32:36.449Z,101858.38
2023-05-12T04:35:03.463Z,101862.31
2023-05-12T04:37:30.252Z,101862.31
2023-05-12T04:39:57.029Z,101861.47
2023-05-12T04:42:23.746Z,101873.56
2023-05-12T04:44:50.489Z,101863.44
2023-05-12T04:47:17.259Z,101874.69
2023-05-12T04:49:44.663Z,101880.56
2023-05-12T04:52:11.686Z,101882.00
2023-05-12T04:54:39.566Z,101885.34
2023-05-12T04:57:06.689Z,101878.06
2023-05-12T04:59:34.000Z,101879.19
2023-05-12T05:02:00.909Z,101880.88
2023-05-12T05:04:27.917Z,101881.16
2023-05-12T05:06:56.005Z,101886.78
2023-05-12T05:09:23.641Z,101885.94
2023-05-12T05:11:50.986Z,101895.78
2023-05-12T05:14:17.993Z,101896.06
2023-05-12T05:16:46.231Z,101900.25
2023-05-12T05:19:20.898Z,101907.03
2023-05-12T05:21:57.474Z,101900.84
2023-05-12T05:24:24.769Z,101910.97
2023-05-12T05:26:52.072Z,101914.88
2023-05-12T05:29:19.014Z,101919.38
2023-05-12T05:31:47.395Z,101908.44
2023-05-12T05:34:14.539Z,101913.22
2023-05-12T05:36:41.541Z,101922.47
2023-05-12T05:39:12.678Z,101907.91
2023-05-12T05:41:40.098Z,101929.53
2023-05-12T05:44:09.923Z,101924.75
2023-05-12T05:46:37.826Z,101927.84
2023-05-12T05:49:04.813Z,101931.22
2023-05-12T05:51:31.934Z,101923.06
2023-05-12T05:54:01.882Z,101927.00
2023-05-12T05:56:29.459Z,101924.47
2023-05-12T05:58:58.444Z,101927.84
2023-05-12T06:01:25.818Z,101929.25
2023-05-12T06:03:52.878Z,101930.66
2023-05-12T06:06:20.320Z,101930.06
2023-05-12T06:08:48.451Z,101937.38
2023-05-12T06:11:20.892Z,101937.38
2023-05-12T06:13:49.025Z,101942.16
2023-05-12T06:16:21.131Z,101935.69
2023-05-12T06:18:53.417Z,101937.97
2023-05-12T06:21:23.643Z,101942.97
2023-05-12T06:23:52.840Z,101935.69
2023-05-12T06:26:23.902Z,101941.88
2023-05-12T06:28:54.658Z,101938.53
2023-05-12T06:31:23.257Z,101942.47
2023-05-12T06:33:51.636Z,101951.47
2023-05-12T06:36:19.388Z,101947.59
2023-05-12T06:38:46.553Z,101950.97
2023-05-12T06:41:13.887Z,101955.50
2023-05-12T06:43:41.811Z,101940.00
2023-05-12T06:46:10.265Z,101952.09
2023-05-12T06:48:40.767Z,101950.69
2023-05-12T06:51:09.530Z,101950.69
2023-05-12T06:53:38.149Z,101957.69
2023-05-12T06:56:05.238Z,101956.56
2023-05-12T06:58:31.870Z,101957.16
2023-05-12T07:01:01.352Z,101952.66
2023-05-12T07:03:27.911Z,101949.84
2023-05-12T07:05:54.432Z,101963.88
2023-05-12T07:08:21.064Z,101951.53
2023-05-12T07:10:47.691Z,101954.88
2023-05-12T07:13:14.237Z,101954.91
2023-05-12T07:15:41.037Z,101959.94
2023-05-12T07:18:07.673Z,101964.44
2023-05-12T07:20:34.352Z,101969.19
2023-05-12T07:23:00.853Z,101969.75
2023-05-12T07:25:30.489Z,101961.06
2023-05-12T07:30:22.714Z,101961.63
2023-05-12T07:32:49.426Z,101954.63
2023-05-12T07:35:15.984Z,101959.94
2023-05-12T07:37:42.621Z,101956.56
2023-05-12T07:40:09.593Z,101962.50
2023-05-12T07:45:01.375Z,101965.84
2023-05-12T07:47:28.837Z,101961.06
2023-05-12T07:49:55.603Z,101963.03
2023-05-12T07:52:22.214Z,101956.03
2023-05-12T07:54:48.789Z,101955.75
2023-05-12T07:57:15.432Z,101959.38
2023-05-12T07:59:42.674Z,101968.09
2023-05-12T08:02:09.304Z,101963.34
2023-05-12T08:04:36.020Z,101971.44
2023-05-12T08:07:02.629Z,101977.91
2023-05-12T08:09:29.332Z,101966.97
2023-05-12T08:11:55.908Z,101980.16
2023-05-12T08:14:22.810Z,101966.69
2023-05-12T08:16:49.421Z,101961.38
2023-05-12T08:19:16.082Z,101967.53
2023-05-12T08:21:42.809Z,101963.88
2023-05-12T08:24:09.356Z,101968.38
2023-05-12T08:26:35.864Z,101963.34
2023-05-12T08:29:02.341Z,101959.38
2023-05-12T08:31:28.852Z,101968.66
2023-05-12T08:34:09.002Z,101976.22
2023-05-12T08:36:37.106Z,101972.03
2023-05-12T08:39:04.311Z,101972.88
2023-05-12T08:41:30.838Z,101977.34
2023-05-12T08:43:57.368Z,101972.88
2023-05-12T08:46:24.175Z,101972.56
2023-05-12T08:48:54.978Z,101977.34
2023-05-12T08:51:22.510Z,101981.84
2023-05-12T08:53:49.314Z,101977.06
2023-05-12T08:58:49.876Z,101979.59
2023-05-12T09:01:17.509Z,101984.09
2023-05-12T09:03:44.284Z,101982.09
2023-05-12T09:06:11.800Z,101975.38
2023-05-12T09:08:39.285Z,101979.03
2023-05-12T09:11:05.901Z,101980.72
2023-05-12T09:13:37.802Z,101979.59
2023-05-12T09:16:07.312Z,101985.22
2023-05-12T09:19:07.157Z,101999.25
2023-05-12T09:21:34.305Z,101990.53
2023-05-12T09:24:07.703Z,101990.25
2023-05-12T09:26:53.764Z,101998.66
2023-05-12T09:29:28.376Z,102001.22
2023-05-12T09:31:59.492Z,101999.25
2023-05-12T09:34:30.697Z,102000.06
2023-05-12T09:36:58.489Z,102002.31
2023-05-12T09:39:25.873Z,102004.00
2023-05-12T09:41:53.308Z,101999.50
2023-05-12T09:44:19.941Z,102003.16
2023-05-12T09:46:46.591Z,102016.91
2023-05-12T09:49:13.202Z,102003.16
2023-05-12T09:51:40.476Z,102024.19
2023-05-12T09:54:08.015Z,102020.56
2023-05-12T09:56:37.775Z,102019.72
2023-05-12T09:59:05.441Z,102027.31
2023-05-12T10:03:59.311Z,102016.09
2023-05-12T10:06:26.095Z,102012.44
2023-05-12T10:09:01.576Z,102019.16
2023-05-12T10:11:28.316Z,102025.63
2023-05-12T10:13:55.700Z,102024.78
2023-05-12T10:16:22.658Z,102019.16
2023-05-12T10:18:50.364Z,102024.78
2023-05-12T10:23:44.459Z,102027.84
2023-05-12T10:26:11.657Z,102026.16
2023-05-12T10:28:38.401Z,102028.69
2023-05-12T10:31:06.249Z,102026.72
2023-05-12T10:33:32.799Z,102032.34
2023-05-12T10:35:59.477Z,102025.34
2023-05-12T10:38:26.392Z,102021.13
2023-05-12T10:40:54.214Z,102018.59
2023-05-12T10:43:24.650Z,102016.94
2023-05-12T10:46:09.471Z,102007.66
2023-05-12T10:48:56.288Z,102007.94
2023-05-12T10:51:28.492Z,102004.00
2023-05-12T10:54:00.060Z,102016.09
2023-05-12T10:56:30.798Z,102002.91
2023-05-12T10:59:14.037Z,101998.94
2023-05-12T11:01:42.425Z,102001.75
2023-05-12T11:04:16.781Z,101999.25
2023-05-12T11:09:13.818Z,101994.75
2023-05-12T11:11:41.273Z,101996.97
2023-05-12T11:14:08.465Z,101984.06
2023-05-12T11:19:07.594Z,101975.94
2023-05-12T11:21:34.206Z,101982.41
2023-05-12T11:24:02.113Z,101988.88
2023-05-12T11:26:29.470Z,101986.31
2023-05-12T11:28:59.359Z,101998.41
2023-05-12T11:31:25.919Z,101989.13
2023-05-12T11:34:12.059Z,102003.16
2023-05-12T11:36:40.227Z,101988.28
2023-05-12T11:39:07.253Z,101987.16
2023-05-12T11:41:33.887Z,101984.38
2023-05-12T11:44:00.468Z,101992.78
2023-05-12T11:46:27.897Z,101977.06
2023-05-12T11:48:58.557Z,101983.25
2023-05-12T11:51:25.676Z,101990.81
2023-05-12T11:53:53.009Z,101984.38
2023-05-12T11:56:23.726Z,101980.72
2023-05-12T11:58:56.675Z,101984.38
2023-05-12T12:01:24.048Z,101991.09
2023-05-12T12:03:51.835Z,101970.34
2023-05-12T12:06:18.344Z,101975.09
2023-05-12T12:09:02.931Z,101974.25
2023-05-12T12:11:30.898Z,101976.78
2023-05-12T12:13:57.494Z,101977.91
2023-05-12T12:16:24.357Z,101978.75
2023-05-12T12:18:51.006Z,101976.50
2023-05-12T12:21:18.917Z,101974.00
2023-05-12T12:23:51.393Z,101970.34
2023-05-12T12:26:20.603Z,101970.34
2023-05-12T12:28:47.326Z,101973.16
2023-05-12T12:31:14.363Z,101978.19
2023-05-12T12:33:40.977Z,101971.44
2023-05-12T12:36:07.616Z,101974.25
2023-05-12T12:38:34.311Z,101978.19
2023-05-12T12:41:00.994Z,101975.09
2023-05-12T12:43:27.661Z,101968.06
2023-05-12T12:45:54.796Z,101961.34
2023-05-12T12:48:21.691Z,101972.56
2023-05-12T12:50:48.260Z,101975.69
2023-05-12T12:53:14.814Z,101983.78
2023-05-12T12:55:41.621Z,101976.50
2023-05-12T12:58:08.122Z,101985.75
2023-05-12T13:00:34.700Z,101979.28
2023-05-12T13:03:01.860Z,101982.09
2023-05-12T13:05:28.547Z,101977.63
2023-05-12T13:07:55.646Z,101984.38
2023-05-12T13:10:22.209Z,101984.63
2023-05-12T13:12:48.742Z,101997.56
2023-05-12T13:15:15.772Z,101984.63
2023-05-12T13:17:43.416Z,102005.13
2023-05-12T13:20:10.447Z,101993.06
2023-05-12T13:22:36.958Z,101993.06
2023-05-12T13:25:07.533Z,101992.50
2023-05-12T13:27:34.633Z,101987.75
2023-05-12T13:30:01.430Z,101992.22
2023-05-12T13:32:29.353Z,101995.84
2023-05-12T13:34:56.311Z,101990.81
2023-05-12T13:37:22.883Z,101996.44
2023-05-12T13:39:49.397Z,101992.50
2023-05-12T13:44:43.581Z,102003.72
2023-05-12T13:49:40.675Z,102006.81
2023-05-12T13:52:07.457Z,102009.88
2023-05-12T13:54:34.269Z,102012.41
2023-05-12T13:57:03.812Z,102018.88
2023-05-12T13:59:33.720Z,102012.69
2023-05-12T14:02:00.387Z,102001.75
2023-05-12T14:09:19.521Z,102013.00
2023-05-12T14:11:46.022Z,102010.19
2023-05-12T14:14:12.775Z,102007.66
2023-05-12T14:16:39.348Z,102009.34
2023-05-12T14:19:06.005Z,102008.50
2023-05-12T14:21:32.549Z,102013.84
2023-05-12T14:23:59.274Z,102016.06
2023-05-12T14:28:52.852Z,102009.63
2023-05-12T14:31:19.565Z,102012.16
2023-05-12T14:33:46.552Z,102015.47
2023-05-12T14:36:13.153Z,102015.22
2023-05-12T14:38:39.686Z,102030.34
2023-05-12T14:41:06.330Z,102027.84
2023-05-12T14:43:32.867Z,102034.00
2023-05-12T14:45:59.462Z,102032.31
2023-05-12T14:50:57.547Z,102026.16
2023-05-12T14:55:49.937Z,102017.47
2023-05-12T14:58:17.829Z,102025.59
2023-05-12T15:00:44.760Z,102035.13
2023-05-12T15:03:11.698Z,102041.03
2023-05-12T15:05:56.546Z,102036.28
2023-05-12T15:08:21.605Z,102043.25
2023-05-12T15:10:48.326Z,102049.16
2023-05-12T15:15:44.316Z,102053.38
2023-05-12T15:18:11.067Z,102051.41
2023-05-12T15:23:04.505Z,102047.75
2023-05-12T15:25:31.469Z,102046.91
2023-05-12T15:27:58.075Z,102046.38
2023-05-12T15:30:24.686Z,102061.19
2023-05-12T15:35:16.650Z,102059.53
2023-05-12T15:37:43.443Z,102057.59
2023-05-12T15:40:10.236Z,102055.03
2023-05-12T15:42:36.751Z,102060.66
2023-05-12T15:45:03.915Z,102052.50
2023-05-12T15:47:30.687Z,102058.69
2023-05-12T15:49:57.214Z,102062.63
2023-05-12T15:52:24.914Z,102050.28
2023-05-12T15:54:51.613Z,102057.84
2023-05-12T15:57:18.306Z,102058.13
2023-05-12T15:59:44.809Z,102055.31
2023-05-12T16:02:11.442Z,102059.53
2023-05-12T16:07:06.648Z,102055.88
2023-05-12T16:11:58.988Z,102053.91
2023-05-12T16:14:25.639Z,102051.97
2023-05-12T16:17:13.739Z,102046.34
2023-05-12T16:19:59.650Z,102051.38
2023-05-12T16:24:53.811Z,102055.31
2023-05-12T16:27:20.289Z,102058.09
2023-05-12T16:29:49.635Z,102056.16
2023-05-12T16:32:17.537Z,102058.09
2023-05-12T16:34:44.802Z,102067.09
2023-05-12T16:37:11.310Z,102067.66
2023-05-12T16:39:37.872Z,102072.13
2023-05-12T16:42:04.589Z,102063.16
2023-05-12T16:44:31.142Z,102076.34
2023-05-12T16:46:57.768Z,102067.94
2023-05-12T16:49:24.259Z,102065.13
2023-05-12T16:51:50.900Z,102073.81
2023-05-12T16:54:18.540Z,102071.00
2023-05-12T16:56:45.248Z,102064.53
2023-05-12T16:59:11.862Z,102086.97
2023-05-12T17:01:39.658Z,102092.88
2023-05-12T17:04:08.102Z,102090.63
2023-05-12T17:06:34.742Z,102091.75
2023-05-12T17:09:01.614Z,102093.16
2023-05-12T17:11:28.249Z,102102.41
2023-05-12T17:13:55.926Z,102100.72
2023-05-12T17:16:22.470Z,102111.09
2023-05-12T17:21:18.454Z,102113.63
2023-05-12T17:23:45.850Z,102097.06
2023-05-12T17:26:12.366Z,102107.19
2023-05-12T17:28:38.955Z,102114.75
2023-05-12T17:31:06.563Z,102098.19
2023-05-12T17:36:11.573Z,102110.53
2023-05-12T17:38:38.617Z,102119.81
2023-05-12T17:41:05.333Z,102111.38
2023-05-12T17:43:31.887Z,102118.97
2023-05-12T17:45:58.571Z,102120.06
2023-05-12T17:48:26.612Z,102118.97
2023-05-12T17:50:53.443Z,102123.13
2023-05-12T17:53:20.034Z,102123.97
2023-05-12T17:55:46.710Z,102125.69
2023-05-12T17:58:13.264Z,102122.31
2023-05-12T18:00:39.856Z,102138.31
2023-05-12T18:03:06.495Z,102138.06
2023-05-12T18:05:34.795Z,102134.47
2023-05-12T18:08:01.417Z,102137.53
2023-05-12T18:10:27.999Z,102142.06
2023-05-12T18:12:55.509Z,102129.19
2023-05-12T18:15:24.320Z,102140.97
2023-05-12T18:17:52.004Z,102151.13
2023-05-12T18:20:19.091Z,102161.53
2023-05-12T18:22:45.670Z,102150.84
2023-05-12T18:27:40.794Z,102160.13
2023-05-12T18:32:34.473Z,102159.84
2023-05-12T18:35:01.101Z,102162.09
2023-05-12T18:37:27.732Z,102155.66
2023-05-12T18:39:54.538Z,102159.84
2023-05-12T18:42:21.073Z,102166.88
2023-05-12T18:44:47.614Z,102169.41
2023-05-12T18:49:40.639Z,102175.59
2023-05-12T18:52:07.234Z,102181.22
2023-05-12T18:54:33.786Z,102181.22
2023-05-12T18:57:00.590Z,102190.47
2023-05-12T18:59:28.578Z,102184.03
2023-05-12T19:01:55.715Z,102184.03
2023-05-12T19:04:22.245Z,102180.38
2023-05-12T19:06:48.822Z,102195.53
2023-05-12T19:09:15.554Z,102200.88
2023-05-12T19:11:42.687Z,102182.91
2023-05-12T19:19:01.775Z,102213.50
2023-05-12T19:21:28.616Z,102211.25
2023-05-12T19:23:55.865Z,102219.97
2023-05-12T19:26:22.396Z,102216.31
2023-05-12T19:28:48.895Z,102222.78
2023-05-12T19:31:15.460Z,102215.47
2023-05-12T19:33:42.087Z,102225.56
2023-05-12T19:36:09.779Z,102230.34
2023-05-12T19:38:36.286Z,102227.53
2023-05-12T19:41:02.779Z,102234.84
2023-05-12T19:43:29.332Z,102234.00
2023-05-12T19:45:55.992Z,102235.13
2023-05-12T19:48:22.536Z,102231.19
2023-05-12T19:50:49.185Z,102237.94
2023-05-12T19:53:15.675Z,102241.59
2023-05-12T19:58:08.939Z,102252.28
2023-05-12T20:00:37.543Z,102255.09
2023-05-12T20:03:06.992Z,102256.19
2023-05-12T20:05:37.737Z,102257.03
2023-05-12T20:08:04.592Z,102257.31
2023-05-12T20:10:31.168Z,102267.44
2023-05-12T20:12:57.719Z,102269.41
2023-05-12T20:15:24.440Z,102260.41
2023-05-12T20:17:51.036Z,102274.47
2023-05-12T20:20:17.602Z,102276.69
2023-05-12T20:22:44.466Z,102274.72
2023-05-12T20:25:14.367Z,102275.84
2023-05-12T20:27:40.900Z,102275.00
2023-05-12T20:30:07.909Z,102279.75
2023-05-12T20:32:34.456Z,102277.25
2023-05-12T20:35:01.342Z,102279.22
2023-05-12T20:37:27.884Z,102284.00
2023-05-12T20:39:55.680Z,102293.25
2023-05-12T20:42:22.263Z,102282.28
2023-05-12T20:44:48.821Z,102283.13
2023-05-12T20:47:15.347Z,102278.09
2023-05-12T20:52:07.986Z,102289.59
2023-05-12T20:54:34.546Z,102293.50
2023-05-12T20:57:01.123Z,102287.34
2023-05-12T20:59:27.630Z,102291.25
2023-05-12T21:01:54.161Z,102298.56
2023-05-12T21:04:20.992Z,102298.84
2023-05-12T21:06:47.671Z,102293.22
2023-05-12T21:09:14.211Z,102298.00
2023-05-12T21:11:41.622Z,102301.91
2023-05-12T21:16:34.663Z,102305.00
2023-05-12T21:19:01.254Z,102300.50
2023-05-12T21:21:28.731Z,102300.78
2023-05-12T21:23:55.264Z,102303.59
2023-05-12T21:26:21.730Z,102300.78
2023-05-12T21:28:48.320Z,102313.13
2023-05-12T21:31:14.821Z,102306.69
2023-05-12T21:33:41.386Z,102304.16
2023-05-12T21:36:08.030Z,102305.25
2023-05-12T21:38:34.517Z,102310.31
2023-05-12T21:41:01.232Z,102303.84
2023-05-12T21:43:27.862Z,102313.66
2023-05-12T21:45:55.674Z,102316.47
2023-05-12T21:48:22.238Z,102313.94
2023-05-12T21:50:56.908Z,102310.28
2023-05-12T21:53:23.501Z,102324.59
2023-05-12T21:55:50.047Z,102329.94
2023-05-12T21:58:16.515Z,102333.28
2023-05-12T22:00:43.284Z,102329.91
2023-05-12T22:03:10.063Z,102338.03
2023-05-12T22:05:36.682Z,102340.03
2023-05-12T22:10:30.504Z,102345.06
2023-05-12T22:12:57.442Z,102354.59
2023-05-12T22:15:23.915Z,102344.47
2023-05-12T22:17:50.681Z,102352.31
2023-05-12T22:20:18.332Z,102348.06
2023-05-12T22:22:45.263Z,102357.63
2023-05-12T22:25:11.969Z,102364.34
2023-05-12T22:27:38.540Z,102376.44
2023-05-12T22:30:05.426Z,102374.72
2023-05-12T22:32:31.956Z,102369.38
2023-05-12T22:34:58.637Z,102362.66
2023-05-12T22:37:25.290Z,102368.81
2023-05-12T22:39:51.805Z,102367.13
2023-05-12T22:42:18.264Z,102382.00
2023-05-12T22:44:44.777Z,102379.19
2023-05-12T22:47:11.537Z,102384.81
2023-05-12T22:49:38.745Z,102388.72
2023-05-12T22:52:06.019Z,102383.13
2023-05-12T22:54:32.689Z,102378.91
2023-05-12T22:59:32.089Z,102371.91
2023-05-12T23:01:58.541Z,102364.03
2023-05-12T23:04:25.131Z,102366.00
2023-05-12T23:06:51.795Z,102356.13
2023-05-12T23:09:18.323Z,102366.81
2023-05-12T23:11:44.930Z,102367.34
2023-05-12T23:14:11.722Z,102363.72
2023-05-12T23:19:04.629Z,102359.59
2023-05-12T23:21:31.726Z,102361.50
2023-05-12T23:23:58.190Z,102359.81
2023-05-12T23:26:24.819Z,102364.88
2023-05-12T23:28:51.334Z,102361.75
2023-05-12T23:31:18.096Z,102369.34
2023-05-12T23:33:44.958Z,102370.44
2023-05-12T23:36:12.553Z,102376.31
2023-05-12T23:38:39.074Z,102373.53
2023-05-12T23:41:05.710Z,102369.03
2023-05-12T23:43:32.404Z,102366.75
2023-05-12T23:45:58.999Z,102360.88
2023-05-12T23:48:26.243Z,102361.16
2023-05-12T23:50:52.832Z,102376.59
2023-05-12T23:53:19.521Z,102373.47
2023-05-12T23:55:46.324Z,102376.84
2023-05-12T23:58:12.903Z,102377.94
